sensor_id;sensor_type;location;lat;lon;timestamp;pressure;altitude;pressure_sealevel;temperature;humidity
69971;BME280;57301;50.328;8.542;2024-03-06T00:00:12;98567.25;;;6.75;92.56
69971;BME280;57301;50.328;8.542;2024-03-06T00:02:38;98567.25;;;6.75;92.56
69971;BME280;57301;50.328;8.542;2024-03-06T00:05:05;98578.16;;;6.29;94.78
69971;BME280;57301;50.328;8.542;2024-03-06T00:07:34;98576.38;;;6.29;94.70
69971;BME280;57301;50.328;8.542;2024-03-06T00:10:01;98591.97;;;6.43;94.22
69971;BME280;57301;50.328;8.542;2024-03-06T00:12:27;98577.56;;;6.25;94.56
69971;BME280;57301;50.328;8.542;2024-03-06T00:14:54;98587.81;;;6.18;95.79
69971;BME280;57301;50.328;8.542;2024-03-06T00:17:21;98596.56;;;6.30;95.46
69971;BME280;57301;50.328;8.542;2024-03-06T00:19:47;98598.91;;;6.01;96.63
69971;BME280;57301;50.328;8.542;2024-03-06T00:22:14;98607.47;;;6.05;97.41
69971;BME280;57301;50.328;8.542;2024-03-06T00:24:40;98610.94;;;6.16;97.75
69971;BME280;57301;50.328;8.542;2024-03-06T00:27:07;98607.47;;;6.48;95.73
69971;BME280;57301;50.328;8.542;2024-03-06T00:29:33;98615.28;;;6.50;95.02
69971;BME280;57301;50.328;8.542;2024-03-06T00:32:02;98615.28;;;6.50;94.68
69971;BME280;57301;50.328;8.542;2024-03-06T00:34:30;98614.19;;;6.63;94.18
69971;BME280;57301;50.328;8.542;2024-03-06T00:36:56;98621.72;;;6.36;94.52
69971;BME280;57301;50.328;8.542;2024-03-06T00:39:23;98619.22;;;6.34;94.31
69971;BME280;57301;50.328;8.542;2024-03-06T00:41:50;98631.75;;;6.21;95.23
69971;BME280;57301;50.328;8.542;2024-03-06T00:44:17;98626.81;;;6.16;94.91
69971;BME280;57301;50.328;8.542;2024-03-06T00:46:44;98625.56;;;6.32;94.55
69971;BME280;57301;50.328;8.542;2024-03-06T00:49:10;98636.75;;;6.46;93.57
69971;BME280;57301;50.328;8.542;2024-03-06T00:51:37;98627.19;;;6.55;92.97
69971;BME280;57301;50.328;8.542;2024-03-06T00:54:14;98629.16;;;6.42;93.46
69971;BME280;57301;50.328;8.542;2024-03-06T00:56:40;98624.25;;;6.37;93.83
69971;BME280;57301;50.328;8.542;2024-03-06T00:59:07;98622.22;;;6.30;94.12
69971;BME280;57301;50.328;8.542;2024-03-06T01:01:34;98627.50;;;6.30;93.63
69971;BME280;57301;50.328;8.542;2024-03-06T01:04:00;98624.66;;;6.10;95.02
69971;BME280;57301;50.328;8.542;2024-03-06T01:06:27;98626.31;;;6.34;93.58
69971;BME280;57301;50.328;8.542;2024-03-06T01:08:54;98627.66;;;6.17;93.72
69971;BME280;57301;50.328;8.542;2024-03-06T01:11:21;98630.44;;;6.27;93.13
69971;BME280;57301;50.328;8.542;2024-03-06T01:13:48;98636.66;;;6.26;93.44
69971;BME280;57301;50.328;8.542;2024-03-06T01:16:14;98635.47;;;6.30;93.22
69971;BME280;57301;50.328;8.542;2024-03-06T01:18:41;98637.75;;;6.23;93.51
69971;BME280;57301;50.328;8.542;2024-03-06T01:21:07;98640.31;;;6.02;94.42
69971;BME280;57301;50.328;8.542;2024-03-06T01:23:34;98635.84;;;5.80;95.80
69971;BME280;57301;50.328;8.542;2024-03-06T01:26:00;98644.00;;;5.88;94.96
69971;BME280;57301;50.328;8.542;2024-03-06T01:28:27;98647.28;;;6.03;94.29
69971;BME280;57301;50.328;8.542;2024-03-06T01:30:54;98642.63;;;5.96;94.74
69971;BME280;57301;50.328;8.542;2024-03-06T01:33:21;98651.38;;;6.07;94.21
69971;BME280;57301;50.328;8.542;2024-03-06T01:35:48;98645.97;;;6.20;93.60
69971;BME280;57301;50.328;8.542;2024-03-06T01:38:14;98646.69;;;6.11;93.49
69971;BME280;57301;50.328;8.542;2024-03-06T01:40:43;98650.44;;;6.08;94.38
69971;BME280;57301;50.328;8.542;2024-03-06T01:43:21;98653.88;;;5.86;94.49
69971;BME280;57301;50.328;8.542;2024-03-06T01:45:52;98651.00;;;6.01;94.41
69971;BME280;57301;50.328;8.542;2024-03-06T01:48:23;98649.81;;;6.16;93.20
69971;BME280;57301;50.328;8.542;2024-03-06T01:50:54;98647.38;;;6.13;93.29
69971;BME280;57301;50.328;8.542;2024-03-06T01:53:22;98642.00;;;5.92;94.17
69971;BME280;57301;50.328;8.542;2024-03-06T01:55:51;98643.75;;;5.69;94.90
69971;BME280;57301;50.328;8.542;2024-03-06T01:58:18;98649.69;;;5.95;93.64
69971;BME280;57301;50.328;8.542;2024-03-06T02:00:45;98646.91;;;5.74;94.04
69971;BME280;57301;50.328;8.542;2024-03-06T02:03:11;98641.25;;;5.90;93.35
69971;BME280;57301;50.328;8.542;2024-03-06T02:05:38;98643.81;;;5.91;93.26
69971;BME280;57301;50.328;8.542;2024-03-06T02:08:05;98640.06;;;5.94;92.84
69971;BME280;57301;50.328;8.542;2024-03-06T02:10:32;98646.69;;;6.00;92.79
69971;BME280;57301;50.328;8.542;2024-03-06T02:13:00;98645.81;;;5.65;94.36
69971;BME280;57301;50.328;8.542;2024-03-06T02:15:27;98652.75;;;5.44;95.03
69971;BME280;57301;50.328;8.542;2024-03-06T02:17:53;98655.56;;;5.65;94.24
69971;BME280;57301;50.328;8.542;2024-03-06T02:20:23;98660.72;;;5.66;93.49
69971;BME280;57301;50.328;8.542;2024-03-06T02:22:50;98653.84;;;5.64;94.19
69971;BME280;57301;50.328;8.542;2024-03-06T02:25:16;98659.63;;;5.69;93.27
69971;BME280;57301;50.328;8.542;2024-03-06T02:27:43;98667.19;;;5.51;93.91
69971;BME280;57301;50.328;8.542;2024-03-06T02:30:10;98662.16;;;5.48;94.29
69971;BME280;57301;50.328;8.542;2024-03-06T02:32:37;98661.41;;;5.35;94.61
69971;BME280;57301;50.328;8.542;2024-03-06T02:35:04;98658.28;;;5.41;93.49
69971;BME280;57301;50.328;8.542;2024-03-06T02:37:35;98670.06;;;5.37;93.82
69971;BME280;57301;50.328;8.542;2024-03-06T02:40:02;98668.41;;;5.47;93.86
69971;BME280;57301;50.328;8.542;2024-03-06T02:42:28;98667.66;;;5.45;93.38
69971;BME280;57301;50.328;8.542;2024-03-06T02:44:55;98661.66;;;5.43;93.18
69971;BME280;57301;50.328;8.542;2024-03-06T02:47:22;98670.97;;;5.25;94.64
69971;BME280;57301;50.328;8.542;2024-03-06T02:49:48;98676.56;;;5.09;95.27
69971;BME280;57301;50.328;8.542;2024-03-06T02:52:15;98682.31;;;5.38;93.96
69971;BME280;57301;50.328;8.542;2024-03-06T02:54:41;98677.03;;;5.38;93.61
69971;BME280;57301;50.328;8.542;2024-03-06T02:57:08;98676.53;;;5.33;93.32
69971;BME280;57301;50.328;8.542;2024-03-06T02:59:35;98684.81;;;5.28;93.25
69971;BME280;57301;50.328;8.542;2024-03-06T03:02:01;98680.84;;;5.23;93.87
69971;BME280;57301;50.328;8.542;2024-03-06T03:04:29;98675.97;;;5.41;92.97
69971;BME280;57301;50.328;8.542;2024-03-06T03:06:56;98682.78;;;5.32;93.41
69971;BME280;57301;50.328;8.542;2024-03-06T03:09:22;98679.16;;;5.33;93.38
69971;BME280;57301;50.328;8.542;2024-03-06T03:11:49;98675.50;;;5.58;92.82
69971;BME280;57301;50.328;8.542;2024-03-06T03:14:16;98669.09;;;5.38;92.62
69971;BME280;57301;50.328;8.542;2024-03-06T03:16:43;98669.75;;;5.53;93.03
69971;BME280;57301;50.328;8.542;2024-03-06T03:19:10;98669.13;;;5.49;92.66
69971;BME280;57301;50.328;8.542;2024-03-06T03:21:37;98671.25;;;5.44;92.99
69971;BME280;57301;50.328;8.542;2024-03-06T03:24:04;98689.97;;;4.95;94.68
69971;BME280;57301;50.328;8.542;2024-03-06T03:26:31;98685.84;;;4.91;94.89
69971;BME280;57301;50.328;8.542;2024-03-06T03:28:57;98688.00;;;5.09;93.72
69971;BME280;57301;50.328;8.542;2024-03-06T03:31:24;98689.22;;;5.17;93.92
69971;BME280;57301;50.328;8.542;2024-03-06T03:33:50;98679.25;;;5.20;93.91
69971;BME280;57301;50.328;8.542;2024-03-06T03:36:17;98682.72;;;5.09;93.83
69971;BME280;57301;50.328;8.542;2024-03-06T03:38:43;98678.06;;;4.89;94.92
69971;BME280;57301;50.328;8.542;2024-03-06T03:41:11;98677.03;;;5.03;94.16
69971;BME280;57301;50.328;8.542;2024-03-06T03:43:42;98677.66;;;5.06;93.53
69971;BME280;57301;50.328;8.542;2024-03-06T03:46:08;98682.88;;;4.95;92.88
69971;BME280;57301;50.328;8.542;2024-03-06T03:48:36;98684.69;;;4.95;93.68
69971;BME280;57301;50.328;8.542;2024-03-06T03:51:04;98684.69;;;4.71;94.46
69971;BME280;57301;50.328;8.542;2024-03-06T03:53:34;98680.69;;;4.65;94.73
69971;BME280;57301;50.328;8.542;2024-03-06T03:56:01;98682.63;;;4.63;93.90
69971;BME280;57301;50.328;8.542;2024-03-06T03:58:29;98686.94;;;4.64;94.77
69971;BME280;57301;50.328;8.542;2024-03-06T04:00:56;98687.06;;;4.63;93.69
69971;BME280;57301;50.328;8.542;2024-03-06T04:03:23;98689.47;;;4.66;93.61
69971;BME280;57301;50.328;8.542;2024-03-06T04:05:51;98699.50;;;4.37;94.79
69971;BME280;57301;50.328;8.542;2024-03-06T04:08:18;98709.22;;;4.36;94.44
69971;BME280;57301;50.328;8.542;2024-03-06T04:10:44;98707.16;;;4.52;94.14
69971;BME280;57301;50.328;8.542;2024-03-06T04:13:15;98703.13;;;4.59;93.46
69971;BME280;57301;50.328;8.542;2024-03-06T04:15:42;98703.94;;;4.36;94.09
69971;BME280;57301;50.328;8.542;2024-03-06T04:18:08;98707.06;;;4.41;93.36
69971;BME280;57301;50.328;8.542;2024-03-06T04:20:35;98705.47;;;4.51;93.75
69971;BME280;57301;50.328;8.542;2024-03-06T04:23:02;98707.56;;;4.59;92.46
69971;BME280;57301;50.328;8.542;2024-03-06T04:25:28;98709.22;;;4.36;93.93
69971;BME280;57301;50.328;8.542;2024-03-06T04:27:55;98710.88;;;4.50;92.97
69971;BME280;57301;50.328;8.542;2024-03-06T04:30:22;98713.03;;;4.32;93.28
69971;BME280;57301;50.328;8.542;2024-03-06T04:32:48;98718.41;;;4.43;93.63
69971;BME280;57301;50.328;8.542;2024-03-06T04:35:15;98728.00;;;4.44;94.09
69971;BME280;57301;50.328;8.542;2024-03-06T04:37:42;98717.91;;;4.25;94.11
69971;BME280;57301;50.328;8.542;2024-03-06T04:40:11;98725.41;;;4.19;94.49
69971;BME280;57301;50.328;8.542;2024-03-06T04:42:37;98734.63;;;4.50;93.78
69971;BME280;57301;50.328;8.542;2024-03-06T04:45:10;98739.59;;;4.54;93.25
69971;BME280;57301;50.328;8.542;2024-03-06T04:47:38;98734.66;;;4.37;94.26
69971;BME280;57301;50.328;8.542;2024-03-06T04:50:11;98740.47;;;4.42;93.88
69971;BME280;57301;50.328;8.542;2024-03-06T04:52:41;98736.25;;;4.40;93.97
69971;BME280;57301;50.328;8.542;2024-03-06T04:55:08;98731.72;;;4.16;94.27
69971;BME280;57301;50.328;8.542;2024-03-06T04:57:37;98730.78;;;4.17;94.21
69971;BME280;57301;50.328;8.542;2024-03-06T05:00:04;98742.69;;;4.36;93.40
69971;BME280;57301;50.328;8.542;2024-03-06T05:02:34;98737.28;;;4.50;92.92
69971;BME280;57301;50.328;8.542;2024-03-06T05:05:20;98739.31;;;4.34;93.42
69971;BME280;57301;50.328;8.542;2024-03-06T05:08:05;98733.53;;;4.16;94.01
69971;BME280;57301;50.328;8.542;2024-03-06T05:10:50;98748.63;;;4.14;94.13
69971;BME280;57301;50.328;8.542;2024-03-06T05:13:34;98742.94;;;4.07;94.02
69971;BME280;57301;50.328;8.542;2024-03-06T05:16:19;98755.25;;;4.32;94.71
69971;BME280;57301;50.328;8.542;2024-03-06T05:19:03;98753.44;;;4.45;93.27
69971;BME280;57301;50.328;8.542;2024-03-06T05:21:48;98755.06;;;4.72;93.59
69971;BME280;57301;50.328;8.542;2024-03-06T05:24:32;98758.13;;;5.61;95.05
69971;BME280;57301;50.328;8.542;2024-03-06T05:27:16;98763.66;;;6.16;91.91
69971;BME280;57301;50.328;8.542;2024-03-06T05:30:01;98760.91;;;6.40;90.30
69971;BME280;57301;50.328;8.542;2024-03-06T05:32:48;98767.72;;;6.76;88.05
69971;BME280;57301;50.328;8.542;2024-03-06T05:35:32;98770.03;;;6.69;87.26
69971;BME280;57301;50.328;8.542;2024-03-06T05:38:16;98779.44;;;5.36;88.87
69971;BME280;57301;50.328;8.542;2024-03-06T05:41:00;98782.84;;;5.25;88.51
69971;BME280;57301;50.328;8.542;2024-03-06T05:43:44;98793.94;;;4.70;88.92
69971;BME280;57301;50.328;8.542;2024-03-06T05:46:28;98796.41;;;5.21;87.87
69971;BME280;57301;50.328;8.542;2024-03-06T05:49:13;98793.22;;;5.04;88.89
69971;BME280;57301;50.328;8.542;2024-03-06T05:51:58;98801.50;;;4.50;90.46
69971;BME280;57301;50.328;8.542;2024-03-06T05:54:42;98802.34;;;4.38;92.06
69971;BME280;57301;50.328;8.542;2024-03-06T05:57:26;98808.13;;;4.69;90.27
69971;BME280;57301;50.328;8.542;2024-03-06T06:00:10;98805.19;;;4.48;91.71
69971;BME280;57301;50.328;8.542;2024-03-06T06:02:38;98809.53;;;4.49;91.82
69971;BME280;57301;50.328;8.542;2024-03-06T06:05:05;98811.78;;;4.66;91.36
69971;BME280;57301;50.328;8.542;2024-03-06T06:07:49;98816.22;;;4.78;90.11
69971;BME280;57301;50.328;8.542;2024-03-06T06:10:16;98818.69;;;4.69;91.23
69971;BME280;57301;50.328;8.542;2024-03-06T06:12:47;98827.91;;;4.25;92.43
69971;BME280;57301;50.328;8.542;2024-03-06T06:15:14;98824.00;;;4.43;92.17
69971;BME280;57301;50.328;8.542;2024-03-06T06:17:42;98819.53;;;4.56;91.23
69971;BME280;57301;50.328;8.542;2024-03-06T06:20:12;98822.47;;;4.65;90.28
69971;BME280;57301;50.328;8.542;2024-03-06T06:22:42;98829.34;;;4.80;89.72
69971;BME280;57301;50.328;8.542;2024-03-06T06:25:08;98831.84;;;4.81;90.47
69971;BME280;57301;50.328;8.542;2024-03-06T06:27:36;98834.50;;;4.81;90.61
69971;BME280;57301;50.328;8.542;2024-03-06T06:30:05;98842.09;;;4.86;90.20
69971;BME280;57301;50.328;8.542;2024-03-06T06:32:33;98847.22;;;4.38;92.45
69971;BME280;57301;50.328;8.542;2024-03-06T06:35:00;98847.78;;;4.43;92.56
69971;BME280;57301;50.328;8.542;2024-03-06T06:37:27;98853.75;;;4.58;92.03
69971;BME280;57301;50.328;8.542;2024-03-06T06:39:53;98853.53;;;4.74;90.81
69971;BME280;57301;50.328;8.542;2024-03-06T06:42:20;98861.06;;;4.67;91.52
69971;BME280;57301;50.328;8.542;2024-03-06T06:44:47;98855.44;;;4.59;91.50
69971;BME280;57301;50.328;8.542;2024-03-06T06:47:13;98855.56;;;4.57;91.60
69971;BME280;57301;50.328;8.542;2024-03-06T06:49:40;98861.38;;;4.63;91.64
69971;BME280;57301;50.328;8.542;2024-03-06T06:52:07;98863.53;;;4.94;91.47
69971;BME280;57301;50.328;8.542;2024-03-06T06:54:34;98868.47;;;5.11;90.75
69971;BME280;57301;50.328;8.542;2024-03-06T06:57:00;98867.66;;;5.35;90.13
69971;BME280;57301;50.328;8.542;2024-03-06T06:59:27;98863.25;;;5.23;90.49
69971;BME280;57301;50.328;8.542;2024-03-06T07:01:54;98871.72;;;5.15;91.29
69971;BME280;57301;50.328;8.542;2024-03-06T07:04:21;98875.44;;;5.12;90.95
69971;BME280;57301;50.328;8.542;2024-03-06T07:06:48;98878.94;;;5.37;90.33
69971;BME280;57301;50.328;8.542;2024-03-06T07:09:15;98878.31;;;5.57;90.07
69971;BME280;57301;50.328;8.542;2024-03-06T07:11:45;98886.34;;;6.39;87.66
69971;BME280;57301;50.328;8.542;2024-03-06T07:14:12;98877.59;;;6.94;85.24
69971;BME280;57301;50.328;8.542;2024-03-06T07:16:43;98881.00;;;7.51;82.19
69971;BME280;57301;50.328;8.542;2024-03-06T07:19:10;98885.28;;;6.86;84.59
69971;BME280;57301;50.328;8.542;2024-03-06T07:21:37;98878.44;;;6.84;85.34
69971;BME280;57301;50.328;8.542;2024-03-06T07:24:04;98884.44;;;6.52;85.87
69971;BME280;57301;50.328;8.542;2024-03-06T07:26:35;98877.22;;;6.99;84.01
69971;BME280;57301;50.328;8.542;2024-03-06T07:29:02;98882.00;;;7.71;81.97
69971;BME280;57301;50.328;8.542;2024-03-06T07:31:29;98878.69;;;8.73;77.48
69971;BME280;57301;50.328;8.542;2024-03-06T07:33:55;98888.03;;;8.68;77.93
69971;BME280;57301;50.328;8.542;2024-03-06T07:36:22;98886.22;;;8.26;78.33
69971;BME280;57301;50.328;8.542;2024-03-06T07:38:49;98887.41;;;8.54;78.46
69971;BME280;57301;50.328;8.542;2024-03-06T07:41:15;98897.06;;;9.76;74.46
69971;BME280;57301;50.328;8.542;2024-03-06T07:43:42;98887.78;;;10.58;71.45
69971;BME280;57301;50.328;8.542;2024-03-06T07:46:09;98890.81;;;10.82;70.22
69971;BME280;57301;50.328;8.542;2024-03-06T07:48:38;98896.44;;;11.44;67.40
69971;BME280;57301;50.328;8.542;2024-03-06T07:51:05;98895.16;;;12.11;67.41
69971;BME280;57301;50.328;8.542;2024-03-06T07:53:32;98901.53;;;11.37;68.02
69971;BME280;57301;50.328;8.542;2024-03-06T07:55:58;98897.47;;;12.76;65.46
69971;BME280;57301;50.328;8.542;2024-03-06T07:58:25;98901.28;;;12.99;62.29
69971;BME280;57301;50.328;8.542;2024-03-06T08:00:52;98903.59;;;12.42;63.37
69971;BME280;57301;50.328;8.542;2024-03-06T08:03:23;98909.13;;;12.93;62.30
69971;BME280;57301;50.328;8.542;2024-03-06T08:05:52;98912.72;;;13.94;58.75
69971;BME280;57301;50.328;8.542;2024-03-06T08:08:20;98917.78;;;12.86;62.13
69971;BME280;57301;50.328;8.542;2024-03-06T08:10:47;98919.06;;;12.56;63.28
69971;BME280;57301;50.328;8.542;2024-03-06T08:13:13;98927.28;;;11.56;67.01
69971;BME280;57301;50.328;8.542;2024-03-06T08:15:40;98932.19;;;10.86;69.78
69971;BME280;57301;50.328;8.542;2024-03-06T08:18:07;98939.00;;;11.18;68.47
69971;BME280;57301;50.328;8.542;2024-03-06T08:20:33;98930.06;;;11.37;68.73
69971;BME280;57301;50.328;8.542;2024-03-06T08:23:00;98935.47;;;10.70;70.25
69971;BME280;57301;50.328;8.542;2024-03-06T08:25:27;98939.75;;;10.34;72.56
69971;BME280;57301;50.328;8.542;2024-03-06T08:27:53;98943.25;;;10.25;73.47
69971;BME280;57301;50.328;8.542;2024-03-06T08:30:20;98943.91;;;10.17;74.41
69971;BME280;57301;50.328;8.542;2024-03-06T08:32:46;98950.34;;;10.05;74.64
69971;BME280;57301;50.328;8.542;2024-03-06T08:35:13;98947.72;;;10.25;74.20
69971;BME280;57301;50.328;8.542;2024-03-06T08:37:45;98950.78;;;10.10;76.51
69971;BME280;57301;50.328;8.542;2024-03-06T08:40:12;98959.09;;;10.36;74.71
69971;BME280;57301;50.328;8.542;2024-03-06T08:42:41;98949.44;;;11.11;73.66
69971;BME280;57301;50.328;8.542;2024-03-06T08:45:09;98956.28;;;10.47;74.01
69971;BME280;57301;50.328;8.542;2024-03-06T08:47:36;98955.72;;;10.63;73.53
69971;BME280;57301;50.328;8.542;2024-03-06T08:50:03;98961.28;;;10.80;72.78
69971;BME280;57301;50.328;8.542;2024-03-06T08:52:31;98965.59;;;11.00;72.54
69971;BME280;57301;50.328;8.542;2024-03-06T08:54:58;98971.03;;;11.18;71.34
69971;BME280;57301;50.328;8.542;2024-03-06T08:57:25;98971.22;;;11.99;68.97
69971;BME280;57301;50.328;8.542;2024-03-06T08:59:54;98968.47;;;12.88;67.09
69971;BME280;57301;50.328;8.542;2024-03-06T09:02:22;98957.13;;;13.88;61.52
69971;BME280;57301;50.328;8.542;2024-03-06T09:04:48;98961.75;;;14.69;57.40
69971;BME280;57301;50.328;8.542;2024-03-06T09:07:15;98955.31;;;15.19;57.00
69971;BME280;57301;50.328;8.542;2024-03-06T09:09:41;98965.69;;;15.30;56.26
69971;BME280;57301;50.328;8.542;2024-03-06T09:12:09;98961.72;;;13.28;59.15
69971;BME280;57301;50.328;8.542;2024-03-06T09:14:41;98980.03;;;11.54;65.44
69971;BME280;57301;50.328;8.542;2024-03-06T09:17:08;98983.41;;;11.09;67.93
69971;BME280;57301;50.328;8.542;2024-03-06T09:19:40;98981.63;;;10.90;69.61
69971;BME280;57301;50.328;8.542;2024-03-06T09:22:25;98985.34;;;11.17;68.02
69971;BME280;57301;50.328;8.542;2024-03-06T09:24:51;98985.72;;;10.85;69.16
69971;BME280;57301;50.328;8.542;2024-03-06T09:27:18;98982.34;;;10.73;68.77
69971;BME280;57301;50.328;8.542;2024-03-06T09:29:45;98985.75;;;10.65;69.96
69971;BME280;57301;50.328;8.542;2024-03-06T09:32:11;98989.47;;;11.11;69.23
69971;BME280;57301;50.328;8.542;2024-03-06T09:34:45;98993.53;;;9.99;73.49
69971;BME280;57301;50.328;8.542;2024-03-06T09:37:11;98992.09;;;9.76;74.68
69971;BME280;57301;50.328;8.542;2024-03-06T09:39:40;98992.78;;;10.47;72.77
69971;BME280;57301;50.328;8.542;2024-03-06T09:42:07;98985.00;;;9.46;75.48
69971;BME280;57301;50.328;8.542;2024-03-06T09:44:34;98992.44;;;10.11;75.71
69971;BME280;57301;50.328;8.542;2024-03-06T09:47:02;98996.63;;;10.04;75.02
69971;BME280;57301;50.328;8.542;2024-03-06T09:49:34;98999.38;;;10.33;75.87
69971;BME280;57301;50.328;8.542;2024-03-06T09:52:01;98990.25;;;10.45;74.30
69971;BME280;57301;50.328;8.542;2024-03-06T09:54:29;98999.66;;;10.69;73.83
69971;BME280;57301;50.328;8.542;2024-03-06T09:56:56;98998.06;;;10.86;73.82
69971;BME280;57301;50.328;8.542;2024-03-06T09:59:25;98996.41;;;10.65;73.62
69971;BME280;57301;50.328;8.542;2024-03-06T10:01:55;98997.22;;;10.17;74.35
69971;BME280;57301;50.328;8.542;2024-03-06T10:04:27;98998.56;;;9.92;75.33
69971;BME280;57301;50.328;8.542;2024-03-06T10:06:58;98998.94;;;10.47;74.27
69971;BME280;57301;50.328;8.542;2024-03-06T10:09:26;98997.66;;;10.81;73.91
69971;BME280;57301;50.328;8.542;2024-03-06T10:11:53;98993.28;;;10.80;73.81
69971;BME280;57301;50.328;8.542;2024-03-06T10:14:20;99001.34;;;10.51;74.96
69971;BME280;57301;50.328;8.542;2024-03-06T10:17:00;98997.53;;;10.82;72.66
69971;BME280;57301;50.328;8.542;2024-03-06T10:19:29;98999.63;;;10.30;74.06
69971;BME280;57301;50.328;8.542;2024-03-06T10:21:57;98994.56;;;10.08;74.10
69971;BME280;57301;50.328;8.542;2024-03-06T10:24:29;98996.84;;;9.72;76.27
69971;BME280;57301;50.328;8.542;2024-03-06T10:26:57;99002.84;;;10.14;75.97
69971;BME280;57301;50.328;8.542;2024-03-06T10:29:26;98999.94;;;10.46;75.63
69971;BME280;57301;50.328;8.542;2024-03-06T10:31:54;99009.31;;;10.70;73.87
69971;BME280;57301;50.328;8.542;2024-03-06T10:34:22;99003.63;;;11.12;72.03
69971;BME280;57301;50.328;8.542;2024-03-06T10:36:54;99011.16;;;10.60;74.37
69971;BME280;57301;50.328;8.542;2024-03-06T10:39:22;99011.41;;;10.95;72.68
69971;BME280;57301;50.328;8.542;2024-03-06T10:41:56;99011.56;;;10.74;73.16
69971;BME280;57301;50.328;8.542;2024-03-06T10:44:26;99005.56;;;11.66;71.25
69971;BME280;57301;50.328;8.542;2024-03-06T10:47:01;99012.38;;;12.06;68.16
69971;BME280;57301;50.328;8.542;2024-03-06T10:49:29;98999.03;;;13.03;65.40
69971;BME280;57301;50.328;8.542;2024-03-06T10:52:01;98997.94;;;14.33;60.12
69971;BME280;57301;50.328;8.542;2024-03-06T10:54:29;98994.44;;;14.97;57.09
69971;BME280;57301;50.328;8.542;2024-03-06T10:57:01;98997.06;;;15.38;57.05
69971;BME280;57301;50.328;8.542;2024-03-06T10:59:29;98990.56;;;14.35;57.64
69971;BME280;57301;50.328;8.542;2024-03-06T11:01:58;98989.38;;;14.29;57.53
69971;BME280;57301;50.328;8.542;2024-03-06T11:04:31;98996.25;;;12.69;61.30
69971;BME280;57301;50.328;8.542;2024-03-06T11:07:02;99003.13;;;12.89;61.98
69971;BME280;57301;50.328;8.542;2024-03-06T11:09:34;99006.75;;;12.62;59.93
69971;BME280;57301;50.328;8.542;2024-03-06T11:12:07;98997.06;;;13.13;60.11
69971;BME280;57301;50.328;8.542;2024-03-06T11:14:38;99001.47;;;13.14;58.86
69971;BME280;57301;50.328;8.542;2024-03-06T11:17:08;98998.56;;;13.08;58.75
69971;BME280;57301;50.328;8.542;2024-03-06T11:20:08;98996.44;;;13.19;57.22
69971;BME280;57301;50.328;8.542;2024-03-06T11:28:37;99000.88;;;13.03;56.76
69971;BME280;57301;50.328;8.542;2024-03-06T11:31:06;99002.09;;;13.08;57.37
69971;BME280;57301;50.328;8.542;2024-03-06T11:33:43;99001.53;;;13.99;54.55
69971;BME280;57301;50.328;8.542;2024-03-06T11:36:28;98998.81;;;15.15;51.88
69971;BME280;57301;50.328;8.542;2024-03-06T11:41:31;98999.13;;;16.91;48.12
69971;BME280;57301;50.328;8.542;2024-03-06T11:44:01;98996.88;;;17.48;47.69
69971;BME280;57301;50.328;8.542;2024-03-06T11:46:41;98999.56;;;17.48;47.57
69971;BME280;57301;50.328;8.542;2024-03-06T11:49:22;98994.09;;;18.58;43.60
69971;BME280;57301;50.328;8.542;2024-03-06T11:51:51;98998.47;;;18.59;44.63
69971;BME280;57301;50.328;8.542;2024-03-06T11:54:18;99005.81;;;18.07;44.69
69971;BME280;57301;50.328;8.542;2024-03-06T11:56:50;99007.06;;;16.70;46.59
69971;BME280;57301;50.328;8.542;2024-03-06T11:59:20;99010.94;;;15.58;48.95
69971;BME280;57301;50.328;8.542;2024-03-06T12:01:47;99009.69;;;15.21;49.55
69971;BME280;57301;50.328;8.542;2024-03-06T12:04:13;99005.03;;;14.50;50.84
69971;BME280;57301;50.328;8.542;2024-03-06T12:06:40;99011.44;;;14.73;51.18
69971;BME280;57301;50.328;8.542;2024-03-06T12:09:06;99011.66;;;13.71;52.75
69971;BME280;57301;50.328;8.542;2024-03-06T12:11:37;99023.91;;;12.96;56.63
69971;BME280;57301;50.328;8.542;2024-03-06T12:14:04;99020.44;;;13.21;54.88
69971;BME280;57301;50.328;8.542;2024-03-06T12:16:31;99017.66;;;13.65;52.91
69971;BME280;57301;50.328;8.542;2024-03-06T12:18:58;99012.59;;;13.54;53.17
69971;BME280;57301;50.328;8.542;2024-03-06T12:21:30;99019.47;;;15.06;49.98
69971;BME280;57301;50.328;8.542;2024-03-06T12:24:08;99017.97;;;13.62;53.42
69971;BME280;57301;50.328;8.542;2024-03-06T12:26:36;99021.66;;;13.95;53.63
69971;BME280;57301;50.328;8.542;2024-03-06T12:29:07;99013.19;;;13.39;54.96
69971;BME280;57301;50.328;8.542;2024-03-06T12:31:35;99014.34;;;13.71;53.54
69971;BME280;57301;50.328;8.542;2024-03-06T12:34:03;99019.78;;;13.87;53.08
69971;BME280;57301;50.328;8.542;2024-03-06T12:36:31;99011.97;;;15.73;49.05
69971;BME280;57301;50.328;8.542;2024-03-06T12:39:02;99019.13;;;15.01;49.12
69971;BME280;57301;50.328;8.542;2024-03-06T12:41:30;99021.81;;;14.60;50.73
69971;BME280;57301;50.328;8.542;2024-03-06T12:43:56;99021.63;;;16.53;47.08
69971;BME280;57301;50.328;8.542;2024-03-06T12:46:23;99025.31;;;15.10;50.13
69971;BME280;57301;50.328;8.542;2024-03-06T12:48:50;99019.66;;;15.04;49.78
69971;BME280;57301;50.328;8.542;2024-03-06T12:51:17;99026.88;;;14.55;52.14
69971;BME280;57301;50.328;8.542;2024-03-06T12:53:44;99027.84;;;13.95;53.55
69971;BME280;57301;50.328;8.542;2024-03-06T12:56:11;99026.06;;;13.36;54.73
69971;BME280;57301;50.328;8.542;2024-03-06T12:58:37;99022.50;;;13.09;56.17
69971;BME280;57301;50.328;8.542;2024-03-06T13:01:04;99029.91;;;12.72;57.56
69971;BME280;57301;50.328;8.542;2024-03-06T13:03:32;99025.31;;;12.28;58.76
69971;BME280;57301;50.328;8.542;2024-03-06T13:05:58;99025.94;;;11.67;61.18
69971;BME280;57301;50.328;8.542;2024-03-06T13:08:25;99029.88;;;11.63;59.45
69971;BME280;57301;50.328;8.542;2024-03-06T13:10:52;99025.03;;;11.76;59.65
69971;BME280;57301;50.328;8.542;2024-03-06T13:13:18;99036.47;;;11.96;58.67
69971;BME280;57301;50.328;8.542;2024-03-06T13:15:45;99028.69;;;12.03;58.05
69971;BME280;57301;50.328;8.542;2024-03-06T13:18:14;99021.94;;;11.81;59.06
69971;BME280;57301;50.328;8.542;2024-03-06T13:20:42;99017.94;;;11.95;58.17
69971;BME280;57301;50.328;8.542;2024-03-06T13:23:09;99032.94;;;11.68;60.30
69971;BME280;57301;50.328;8.542;2024-03-06T13:25:35;99028.84;;;11.74;59.91